sensor_id;sensor_type;location;lat;lon;timestamp;temperature;humidity
41694;DHT22;27377;50.666;9.150;2023-04-24T00:01:54;11.90;99.90
41694;DHT22;27377;50.666;9.150;2023-04-24T00:04:20;11.90;99.90
41694;DHT22;27377;50.666;9.150;2023-04-24T00:06:45;11.90;99.90
41694;DHT22;27377;50.666;9.150;2023-04-24T00:09:14;11.90;99.90
41694;DHT22;27377;50.666;9.150;2023-04-24T00:11:41;11.90;99.90
41694;DHT22;27377;50.666;9.150;2023-04-24T00:14:06;11.90;99.90
41694;DHT22;27377;50.666;9.150;2023-04-24T00:16:32;11.90;99.90
41694;DHT22;27377;50.666;9.150;2023-04-24T00:18:57;11.90;99.90
41694;DHT22;27377;50.666;9.150;2023-04-24T00:21:23;11.90;99.90
41694;DHT22;27377;50.666;9.150;2023-04-24T00:23:51;11.90;99.90
41694;DHT22;27377;50.666;9.150;2023-04-24T00:26:16;11.90;99.90
41694;DHT22;27377;50.666;9.150;2023-04-24T00:28:42;11.90;99.90
41694;DHT22;27377;50.666;9.150;2023-04-24T00:31:07;12.00;99.90
41694;DHT22;27377;50.666;9.150;2023-04-24T00:33:33;11.90;99.90
41694;DHT22;27377;50.666;9.150;2023-04-24T00:35:58;12.00;99.90
41694;DHT22;27377;50.666;9.150;2023-04-24T00:38:24;11.90;99.90
41694;DHT22;27377;50.666;9.150;2023-04-24T00:40:50;11.90;99.90
41694;DHT22;27377;50.666;9.150;2023-04-24T00:43:16;11.90;99.90
41694;DHT22;27377;50.666;9.150;2023-04-24T00:45:42;11.90;99.90
41694;DHT22;27377;50.666;9.150;2023-04-24T00:48:07;11.90;99.90
41694;DHT22;27377;50.666;9.150;2023-04-24T00:50:35;11.90;99.90
41694;DHT22;27377;50.666;9.150;2023-04-24T00:53:01;11.90;99.90
41694;DHT22;27377;50.666;9.150;2023-04-24T00:55:26;11.80;99.90
41694;DHT22;27377;50.666;9.150;2023-04-24T00:57:52;11.90;99.90
41694;DHT22;27377;50.666;9.150;2023-04-24T01:00:17;11.80;99.90
41694;DHT22;27377;50.666;9.150;2023-04-24T01:02:44;11.80;99.90
41694;DHT22;27377;50.666;9.150;2023-04-24T01:05:12;11.80;99.90
41694;DHT22;27377;50.666;9.150;2023-04-24T01:07:39;11.80;99.90
41694;DHT22;27377;50.666;9.150;2023-04-24T01:10:07;11.80;99.90
41694;DHT22;27377;50.666;9.150;2023-04-24T01:12:33;11.80;99.90
41694;DHT22;27377;50.666;9.150;2023-04-24T01:14:59;11.80;99.90
41694;DHT22;27377;50.666;9.150;2023-04-24T01:17:24;11.80;99.90
41694;DHT22;27377;50.666;9.150;2023-04-24T01:19:50;11.80;99.90
41694;DHT22;27377;50.666;9.150;2023-04-24T01:22:19;11.80;99.90
41694;DHT22;27377;50.666;9.150;2023-04-24T01:24:46;11.80;99.90
41694;DHT22;27377;50.666;9.150;2023-04-24T01:27:12;11.80;99.90
41694;DHT22;27377;50.666;9.150;2023-04-24T01:29:38;11.80;99.90
41694;DHT22;27377;50.666;9.150;2023-04-24T01:32:04;11.80;99.90
41694;DHT22;27377;50.666;9.150;2023-04-24T01:34:30;11.80;99.90
41694;DHT22;27377;50.666;9.150;2023-04-24T01:36:56;11.80;99.90
41694;DHT22;27377;50.666;9.150;2023-04-24T01:39:22;11.80;99.90
41694;DHT22;27377;50.666;9.150;2023-04-24T01:41:48;11.80;99.90
41694;DHT22;27377;50.666;9.150;2023-04-24T01:44:15;11.80;99.90
41694;DHT22;27377;50.666;9.150;2023-04-24T01:46:41;11.80;99.90
41694;DHT22;27377;50.666;9.150;2023-04-24T01:49:07;11.80;99.90
41694;DHT22;27377;50.666;9.150;2023-04-24T01:51:32;11.80;99.90
41694;DHT22;27377;50.666;9.150;2023-04-24T01:53:58;11.80;99.90
41694;DHT22;27377;50.666;9.150;2023-04-24T01:56:24;11.80;99.90
41694;DHT22;27377;50.666;9.150;2023-04-24T01:58:52;11.80;99.90
41694;DHT22;27377;50.666;9.150;2023-04-24T02:01:19;11.80;99.90
41694;DHT22;27377;50.666;9.150;2023-04-24T02:03:45;11.80;99.90
41694;DHT22;27377;50.666;9.150;2023-04-24T02:06:11;11.80;99.90
41694;DHT22;27377;50.666;9.150;2023-04-24T02:08:36;11.80;99.90
41694;DHT22;27377;50.666;9.150;2023-04-24T02:11:02;11.80;99.90
41694;DHT22;27377;50.666;9.150;2023-04-24T02:13:28;11.80;99.90
41694;DHT22;27377;50.666;9.150;2023-04-24T02:15:55;11.80;99.90
41694;DHT22;27377;50.666;9.150;2023-04-24T02:18:21;11.80;99.90
41694;DHT22;27377;50.666;9.150;2023-04-24T02:20:47;11.80;99.90
41694;DHT22;27377;50.666;9.150;2023-04-24T02:23:13;11.80;99.90
41694;DHT22;27377;50.666;9.150;2023-04-24T02:25:39;11.80;99.90
41694;DHT22;27377;50.666;9.150;2023-04-24T02:28:04;11.80;99.90
41694;DHT22;27377;50.666;9.150;2023-04-24T02:30:30;11.80;99.90
41694;DHT22;27377;50.666;9.150;2023-04-24T02:32:55;11.80;99.90
41694;DHT22;27377;50.666;9.150;2023-04-24T02:35:21;11.80;99.90
41694;DHT22;27377;50.666;9.150;2023-04-24T02:37:47;11.80;99.90
41694;DHT22;27377;50.666;9.150;2023-04-24T02:40:12;11.80;99.90
41694;DHT22;27377;50.666;9.150;2023-04-24T02:42:38;11.80;99.90
41694;DHT22;27377;50.666;9.150;2023-04-24T02:45:03;11.80;99.90
41694;DHT22;27377;50.666;9.150;2023-04-24T02:47:30;11.80;99.90
41694;DHT22;27377;50.666;9.150;2023-04-24T02:49:55;11.80;99.90
41694;DHT22;27377;50.666;9.150;2023-04-24T02:52:21;11.80;99.90
41694;DHT22;27377;50.666;9.150;2023-04-24T02:54:47;11.70;99.90
41694;DHT22;27377;50.666;9.150;2023-04-24T02:57:12;11.70;99.90
41694;DHT22;27377;50.666;9.150;2023-04-24T02:59:37;11.70;99.90
41694;DHT22;27377;50.666;9.150;2023-04-24T03:02:03;11.70;99.90
41694;DHT22;27377;50.666;9.150;2023-04-24T03:04:29;11.70;99.90
41694;DHT22;27377;50.666;9.150;2023-04-24T03:06:54;11.70;99.90
41694;DHT22;27377;50.666;9.150;2023-04-24T03:09:21;11.60;99.90
41694;DHT22;27377;50.666;9.150;2023-04-24T03:11:46;11.60;99.90
41694;DHT22;27377;50.666;9.150;2023-04-24T03:14:12;11.60;99.90
41694;DHT22;27377;50.666;9.150;2023-04-24T03:16:37;11.60;99.90
41694;DHT22;27377;50.666;9.150;2023-04-24T03:19:03;11.60;99.90
41694;DHT22;27377;50.666;9.150;2023-04-24T03:21:28;11.50;99.90
41694;DHT22;27377;50.666;9.150;2023-04-24T03:23:54;11.50;99.90
41694;DHT22;27377;50.666;9.150;2023-04-24T03:26:20;11.50;99.90
41694;DHT22;27377;50.666;9.150;2023-04-24T03:28:45;11.50;99.90
41694;DHT22;27377;50.666;9.150;2023-04-24T03:31:14;11.50;99.90
41694;DHT22;27377;50.666;9.150;2023-04-24T03:33:40;11.40;99.90
41694;DHT22;27377;50.666;9.150;2023-04-24T03:36:06;11.40;99.90
41694;DHT22;27377;50.666;9.150;2023-04-24T03:38:35;11.40;99.90
41694;DHT22;27377;50.666;9.150;2023-04-24T03:41:00;11.40;99.90
41694;DHT22;27377;50.666;9.150;2023-04-24T03:43:26;11.40;99.90
41694;DHT22;27377;50.666;9.150;2023-04-24T03:45:52;11.40;99.90
41694;DHT22;27377;50.666;9.150;2023-04-24T03:48:18;11.30;99.90
41694;DHT22;27377;50.666;9.150;2023-04-24T03:50:44;11.30;99.90
41694;DHT22;27377;50.666;9.150;2023-04-24T03:53:09;11.30;99.90
41694;DHT22;27377;50.666;9.150;2023-04-24T03:55:35;11.30;99.90
41694;DHT22;27377;50.666;9.150;2023-04-24T03:58:01;11.20;99.90
41694;DHT22;27377;50.666;9.150;2023-04-24T04:00:26;11.20;99.90
41694;DHT22;27377;50.666;9.150;2023-04-24T04:02:53;11.20;99.90
41694;DHT22;27377;50.666;9.150;2023-04-24T04:05:18;11.20;99.90
41694;DHT22;27377;50.666;9.150;2023-04-24T04:07:44;11.20;99.90
41694;DHT22;27377;50.666;9.150;2023-04-24T04:10:10;11.20;99.90
41694;DHT22;27377;50.666;9.150;2023-04-24T04:12:35;11.20;99.90
41694;DHT22;27377;50.666;9.150;2023-04-24T04:15:04;11.20;99.90
41694;DHT22;27377;50.666;9.150;2023-04-24T04:17:31;11.20;99.90
41694;DHT22;27377;50.666;9.150;2023-04-24T04:19:57;11.20;99.90
41694;DHT22;27377;50.666;9.150;2023-04-24T04:22:22;11.20;99.90
41694;DHT22;27377;50.666;9.150;2023-04-24T04:24:48;11.20;99.90
41694;DHT22;27377;50.666;9.150;2023-04-24T04:27:16;11.10;99.90
41694;DHT22;27377;50.666;9.150;2023-04-24T04:29:44;11.10;99.90
41694;DHT22;27377;50.666;9.150;2023-04-24T04:32:10;11.10;99.90
41694;DHT22;27377;50.666;9.150;2023-04-24T04:34:35;11.10;99.90
41694;DHT22;27377;50.666;9.150;2023-04-24T04:37:03;11.10;99.90
41694;DHT22;27377;50.666;9.150;2023-04-24T04:39:29;11.10;99.90
41694;DHT22;27377;50.666;9.150;2023-04-24T04:41:55;11.10;99.90
41694;DHT22;27377;50.666;9.150;2023-04-24T04:44:21;11.00;99.90
41694;DHT22;27377;50.666;9.150;2023-04-24T04:46:47;11.00;99.90
41694;DHT22;27377;50.666;9.150;2023-04-24T04:49:13;11.00;99.90
41694;DHT22;27377;50.666;9.150;2023-04-24T04:51:44;11.00;99.90
41694;DHT22;27377;50.666;9.150;2023-04-24T04:54:10;11.00;99.90
41694;DHT22;27377;50.666;9.150;2023-04-24T04:56:35;11.00;99.90
41694;DHT22;27377;50.666;9.150;2023-04-24T04:59:01;11.00;99.90
41694;DHT22;27377;50.666;9.150;2023-04-24T05:01:26;11.00;99.90
41694;DHT22;27377;50.666;9.150;2023-04-24T05:03:53;10.90;99.90
41694;DHT22;27377;50.666;9.150;2023-04-24T05:06:18;10.90;99.90
41694;DHT22;27377;50.666;9.150;2023-04-24T05:08:44;10.90;99.90
41694;DHT22;27377;50.666;9.150;2023-04-24T05:11:10;10.80;99.90
41694;DHT22;27377;50.666;9.150;2023-04-24T05:13:35;10.80;99.90
41694;DHT22;27377;50.666;9.150;2023-04-24T05:16:01;10.80;99.90
41694;DHT22;27377;50.666;9.150;2023-04-24T05:18:26;10.80;99.90
41694;DHT22;27377;50.666;9.150;2023-04-24T05:20:52;10.80;99.90
41694;DHT22;27377;50.666;9.150;2023-04-24T05:23:17;10.80;99.90
41694;DHT22;27377;50.666;9.150;2023-04-24T05:25:43;10.80;99.90
41694;DHT22;27377;50.666;9.150;2023-04-24T05:28:08;10.70;99.90
41694;DHT22;27377;50.666;9.150;2023-04-24T05:30:34;10.70;99.90
41694;DHT22;27377;50.666;9.150;2023-04-24T05:32:59;10.70;99.90
41694;DHT22;27377;50.666;9.150;2023-04-24T05:35:25;10.60;99.90
41694;DHT22;27377;50.666;9.150;2023-04-24T05:37:50;10.60;99.90
41694;DHT22;27377;50.666;9.150;2023-04-24T05:40:16;10.60;99.90
41694;DHT22;27377;50.666;9.150;2023-04-24T05:42:42;10.50;99.90
41694;DHT22;27377;50.666;9.150;2023-04-24T05:45:08;10.50;99.90
41694;DHT22;27377;50.666;9.150;2023-04-24T05:47:34;10.50;99.90
41694;DHT22;27377;50.666;9.150;2023-04-24T05:50:00;10.50;99.90
41694;DHT22;27377;50.666;9.150;2023-04-24T05:52:25;10.50;99.90
41694;DHT22;27377;50.666;9.150;2023-04-24T05:54:51;10.50;99.90
41694;DHT22;27377;50.666;9.150;2023-04-24T05:57:16;10.40;99.90
41694;DHT22;27377;50.666;9.150;2023-04-24T05:59:42;10.40;99.90
41694;DHT22;27377;50.666;9.150;2023-04-24T06:02:07;10.40;99.90
41694;DHT22;27377;50.666;9.150;2023-04-24T06:04:33;10.30;99.90
41694;DHT22;27377;50.666;9.150;2023-04-24T06:06:59;10.40;99.90
41694;DHT22;27377;50.666;9.150;2023-04-24T06:09:25;10.30;99.90
41694;DHT22;27377;50.666;9.150;2023-04-24T06:11:51;10.30;99.90
41694;DHT22;27377;50.666;9.150;2023-04-24T06:14:21;10.30;99.90
41694;DHT22;27377;50.666;9.150;2023-04-24T06:16:47;10.30;99.90
41694;DHT22;27377;50.666;9.150;2023-04-24T06:19:13;10.30;99.90
41694;DHT22;27377;50.666;9.150;2023-04-24T06:21:38;10.30;99.90
41694;DHT22;27377;50.666;9.150;2023-04-24T06:24:04;10.30;99.90
41694;DHT22;27377;50.666;9.150;2023-04-24T06:26:29;10.30;99.90
41694;DHT22;27377;50.666;9.150;2023-04-24T06:28:55;10.30;99.90
41694;DHT22;27377;50.666;9.150;2023-04-24T06:31:21;10.30;99.90
41694;DHT22;27377;50.666;9.150;2023-04-24T06:33:48;10.30;99.90
41694;DHT22;27377;50.666;9.150;2023-04-24T06:36:14;10.30;99.90
41694;DHT22;27377;50.666;9.150;2023-04-24T06:38:39;10.30;99.90
41694;DHT22;27377;50.666;9.150;2023-04-24T06:41:05;10.30;99.90
41694;DHT22;27377;50.666;9.150;2023-04-24T06:43:31;10.30;99.90
41694;DHT22;27377;50.666;9.150;2023-04-24T06:45:57;10.30;99.90
41694;DHT22;27377;50.666;9.150;2023-04-24T06:48:24;10.30;99.90
41694;DHT22;27377;50.666;9.150;2023-04-24T06:50:50;10.40;99.90
41694;DHT22;27377;50.666;9.150;2023-04-24T06:53:16;10.40;99.90
41694;DHT22;27377;50.666;9.150;2023-04-24T06:55:41;10.40;99.90
41694;DHT22;27377;50.666;9.150;2023-04-24T06:58:08;10.40;99.90
41694;DHT22;27377;50.666;9.150;2023-04-24T07:00:34;10.40;99.90
41694;DHT22;27377;50.666;9.150;2023-04-24T07:03:00;10.40;99.90
41694;DHT22;27377;50.666;9.150;2023-04-24T07:05:26;10.40;99.90
41694;DHT22;27377;50.666;9.150;2023-04-24T07:07:52;10.40;99.90
41694;DHT22;27377;50.666;9.150;2023-04-24T07:10:18;10.40;99.90
41694;DHT22;27377;50.666;9.150;2023-04-24T07:12:44;10.30;99.90
41694;DHT22;27377;50.666;9.150;2023-04-24T07:15:10;10.30;99.90
41694;DHT22;27377;50.666;9.150;2023-04-24T07:17:35;10.30;99.90
41694;DHT22;27377;50.666;9.150;2023-04-24T07:20:04;10.30;99.90
41694;DHT22;27377;50.666;9.150;2023-04-24T07:22:30;10.40;99.90
41694;DHT22;27377;50.666;9.150;2023-04-24T07:24:55;10.30;99.90
41694;DHT22;27377;50.666;9.150;2023-04-24T07:27:21;10.30;99.90
41694;DHT22;27377;50.666;9.150;2023-04-24T07:29:46;10.30;99.90
41694;DHT22;27377;50.666;9.150;2023-04-24T07:32:12;10.30;99.90
41694;DHT22;27377;50.666;9.150;2023-04-24T07:34:37;10.30;99.90
41694;DHT22;27377;50.666;9.150;2023-04-24T07:37:03;10.30;99.90
41694;DHT22;27377;50.666;9.150;2023-04-24T07:39:29;10.30;99.90
41694;DHT22;27377;50.666;9.150;2023-04-24T07:41:54;10.30;99.90
41694;DHT22;27377;50.666;9.150;2023-04-24T07:44:20;10.40;99.90
41694;DHT22;27377;50.666;9.150;2023-04-24T07:46:45;10.40;99.90
41694;DHT22;27377;50.666;9.150;2023-04-24T07:49:11;10.40;99.90
41694;DHT22;27377;50.666;9.150;2023-04-24T07:51:36;10.40;99.90
41694;DHT22;27377;50.666;9.150;2023-04-24T07:54:04;10.50;99.90
41694;DHT22;27377;50.666;9.150;2023-04-24T07:56:31;10.50;99.90
41694;DHT22;27377;50.666;9.150;2023-04-24T07:58:57;10.50;99.90
41694;DHT22;27377;50.666;9.150;2023-04-24T08:01:22;10.50;99.90
41694;DHT22;27377;50.666;9.150;2023-04-24T08:03:48;10.60;99.90
41694;DHT22;27377;50.666;9.150;2023-04-24T08:06:13;10.60;99.90
41694;DHT22;27377;50.666;9.150;2023-04-24T08:08:39;10.60;99.90
41694;DHT22;27377;50.666;9.150;2023-04-24T08:11:05;10.70;99.90
41694;DHT22;27377;50.666;9.150;2023-04-24T08:13:30;10.60;99.90
41694;DHT22;27377;50.666;9.150;2023-04-24T08:15:56;10.60;99.90
41694;DHT22;27377;50.666;9.150;2023-04-24T08:18:22;10.70;99.90
41694;DHT22;27377;50.666;9.150;2023-04-24T08:20:48;10.60;99.90
41694;DHT22;27377;50.666;9.150;2023-04-24T08:23:13;10.60;99.90
41694;DHT22;27377;50.666;9.150;2023-04-24T08:25:39;10.60;99.90
41694;DHT22;27377;50.666;9.150;2023-04-24T08:28:06;10.60;99.90
41694;DHT22;27377;50.666;9.150;2023-04-24T08:30:32;10.60;99.90
41694;DHT22;27377;50.666;9.150;2023-04-24T08:32:57;10.60;99.90
41694;DHT22;27377;50.666;9.150;2023-04-24T08:35:23;10.60;99.90
41694;DHT22;27377;50.666;9.150;2023-04-24T08:37:49;10.60;99.90
41694;DHT22;27377;50.666;9.150;2023-04-24T08:40:16;10.60;99.90
41694;DHT22;27377;50.666;9.150;2023-04-24T08:42:42;10.60;99.90
41694;DHT22;27377;50.666;9.150;2023-04-24T08:45:10;10.60;99.90
41694;DHT22;27377;50.666;9.150;2023-04-24T08:47:38;10.60;99.90
41694;DHT22;27377;50.666;9.150;2023-04-24T08:50:04;10.60;99.90
41694;DHT22;27377;50.666;9.150;2023-04-24T08:52:32;10.60;99.90
41694;DHT22;27377;50.666;9.150;2023-04-24T08:55:00;10.60;99.90
41694;DHT22;27377;50.666;9.150;2023-04-24T08:57:26;10.60;99.90
41694;DHT22;27377;50.666;9.150;2023-04-24T08:59:53;10.60;99.90
41694;DHT22;27377;50.666;9.150;2023-04-24T09:02:21;10.60;99.90
41694;DHT22;27377;50.666;9.150;2023-04-24T09:04:47;10.60;99.90
41694;DHT22;27377;50.666;9.150;2023-04-24T09:07:14;10.50;99.90
41694;DHT22;27377;50.666;9.150;2023-04-24T09:09:42;10.60;99.90
41694;DHT22;27377;50.666;9.150;2023-04-24T09:12:07;10.60;99.90
41694;DHT22;27377;50.666;9.150;2023-04-24T09:14:35;10.60;99.90
41694;DHT22;27377;50.666;9.150;2023-04-24T09:17:02;10.60;99.90
41694;DHT22;27377;50.666;9.150;2023-04-24T09:19:28;10.60;99.90
41694;DHT22;27377;50.666;9.150;2023-04-24T09:21:53;10.60;99.90
41694;DHT22;27377;50.666;9.150;2023-04-24T09:24:21;10.60;99.90
41694;DHT22;27377;50.666;9.150;2023-04-24T09:26:56;10.60;99.90
41694;DHT22;27377;50.666;9.150;2023-04-24T09:29:23;10.60;99.90
41694;DHT22;27377;50.666;9.150;2023-04-24T09:31:48;10.60;99.90
41694;DHT22;27377;50.666;9.150;2023-04-24T09:34:14;10.70;99.90
41694;DHT22;27377;50.666;9.150;2023-04-24T09:36:41;10.70;99.90
41694;DHT22;27377;50.666;9.150;2023-04-24T09:39:15;10.70;99.90
41694;DHT22;27377;50.666;9.150;2023-04-24T09:41:54;10.70;99.90
41694;DHT22;27377;50.666;9.150;2023-04-24T09:44:24;10.60;99.90
41694;DHT22;27377;50.666;9.150;2023-04-24T09:46:53;10.60;99.90
41694;DHT22;27377;50.666;9.150;2023-04-24T09:49:26;10.60;99.90
41694;DHT22;27377;50.666;9.150;2023-04-24T09:51:53;10.60;99.90
41694;DHT22;27377;50.666;9.150;2023-04-24T09:54:27;10.60;99.90
41694;DHT22;27377;50.666;9.150;2023-04-24T09:56:54;10.60;99.90
41694;DHT22;27377;50.666;9.150;2023-04-24T09:59:21;10.60;99.90
41694;DHT22;27377;50.666;9.150;2023-04-24T10:01:48;10.60;99.90
41694;DHT22;27377;50.666;9.150;2023-04-24T10:04:25;10.60;99.90
41694;DHT22;27377;50.666;9.150;2023-04-24T10:06:52;10.60;99.90
41694;DHT22;27377;50.666;9.150;2023-04-24T10:09:19;10.60;99.90
41694;DHT22;27377;50.666;9.150;2023-04-24T10:11:49;10.70;99.90
41694;DHT22;27377;50.666;9.150;2023-04-24T10:14:20;10.70;99.90
41694;DHT22;27377;50.666;9.150;2023-04-24T10:16:47;10.80;99.90
41694;DHT22;27377;50.666;9.150;2023-04-24T10:19:14;10.80;99.90
41694;DHT22;27377;50.666;9.150;2023-04-24T10:21:41;10.80;99.90
41694;DHT22;27377;50.666;9.150;2023-04-24T10:24:12;10.80;99.90
41694;DHT22;27377;50.666;9.150;2023-04-24T10:26:38;10.90;99.90
41694;DHT22;27377;50.666;9.150;2023-04-24T10:29:05;10.80;99.90
41694;DHT22;27377;50.666;9.150;2023-04-24T10:31:36;10.80;99.90
41694;DHT22;27377;50.666;9.150;2023-04-24T10:34:02;10.70;99.90
41694;DHT22;27377;50.666;9.150;2023-04-24T10:36:30;10.70;99.90
41694;DHT22;27377;50.666;9.150;2023-04-24T10:38:59;10.70;99.90
41694;DHT22;27377;50.666;9.150;2023-04-24T10:41:26;10.60;99.90
41694;DHT22;27377;50.666;9.150;2023-04-24T10:46:30;10.60;99.90
41694;DHT22;27377;50.666;9.150;2023-04-24T10:48:56;10.60;99.90
41694;DHT22;27377;50.666;9.150;2023-04-24T10:51:24;10.60;99.90
41694;DHT22;27377;50.666;9.150;2023-04-24T10:53:51;10.50;99.90
41694;DHT22;27377;50.666;9.150;2023-04-24T10:56:17;10.60;99.90
41694;DHT22;27377;50.666;9.150;2023-04-24T10:58:50;10.60;99.90
41694;DHT22;27377;50.666;9.150;2023-04-24T11:01:28;10.60;99.90
41694;DHT22;27377;50.666;9.150;2023-04-24T11:03:59;10.60;99.90
41694;DHT22;27377;50.666;9.150;2023-04-24T11:06:32;10.60;99.90
41694;DHT22;27377;50.666;9.150;2023-04-24T11:09:04;10.60;99.90
41694;DHT22;27377;50.666;9.150;2023-04-24T11:11:31;10.60;99.90
41694;DHT22;27377;50.666;9.150;2023-04-24T11:16:27;10.60;99.90
41694;DHT22;27377;50.666;9.150;2023-04-24T11:19:07;10.60;99.90
41694;DHT22;27377;50.666;9.150;2023-04-24T11:21:50;10.60;99.90
41694;DHT22;27377;50.666;9.150;2023-04-24T11:24:29;10.60;99.90
41694;DHT22;27377;50.666;9.150;2023-04-24T11:29:41;10.70;99.90
41694;DHT22;27377;50.666;9.150;2023-04-24T11:32:26;10.70;99.90
41694;DHT22;27377;50.666;9.150;2023-04-24T11:34:55;10.70;99.90
41694;DHT22;27377;50.666;9.150;2023-04-24T11:37:43;10.70;99.90
41694;DHT22;27377;50.666;9.150;2023-04-24T11:40:10;10.70;99.90
41694;DHT22;27377;50.666;9.150;2023-04-24T11:42:40;10.70;99.90
41694;DHT22;27377;50.666;9.150;2023-04-24T11:45:11;10.70;99.90
41694;DHT22;27377;50.666;9.150;2023-04-24T11:47:37;10.60;99.90
41694;DHT22;27377;50.666;9.150;2023-04-24T11:50:08;10.60;99.90
41694;DHT22;27377;50.666;9.150;2023-04-24T11:52:38;10.60;99.90
41694;DHT22;27377;50.666;9.150;2023-04-24T11:55:04;10.60;99.90
41694;DHT22;27377;50.666;9.150;2023-04-24T11:57:31;10.60;99.90
41694;DHT22;27377;50.666;9.150;2023-04-24T12:00:02;10.60;99.90
41694;DHT22;27377;50.666;9.150;2023-04-24T12:02:29;10.60;99.90
41694;DHT22;27377;50.666;9.150;2023-04-24T12:04:55;10.60;99.90
41694;DHT22;27377;50.666;9.150;2023-04-24T12:07:21;10.60;99.90
41694;DHT22;27377;50.666;9.150;2023-04-24T12:09:50;10.60;99.90
41694;DHT22;27377;50.666;9.150;2023-04-24T12:12:19;10.60;99.90
41694;DHT22;27377;50.666;9.150;2023-04-24T12:14:49;10.50;99.90
41694;DHT22;27377;50.666;9.150;2023-04-24T12:17:16;10.50;99.90
41694;DHT22;27377;50.666;9.150;2023-04-24T12:19:46;10.50;99.90
41694;DHT22;27377;50.666;9.150;2023-04-24T12:22:12;10.50;99.90
41694;DHT22;27377;50.666;9.150;2023-04-24T12:24:59;10.50;99.90
41694;DHT22;27377;50.666;9.150;2023-04-24T12:27:28;10.50;99.90
41694;DHT22;27377;50.666;9.150;2023-04-24T12:29:56;10.50;99.90
41694;DHT22;27377;50.666;9.150;2023-04-24T12:32:22;10.60;99.90
41694;DHT22;27377;50.666;9.150;2023-04-24T12:34:49;10.60;99.90
41694;DHT22;27377;50.666;9.150;2023-04-24T12:37:15;10.70;99.90
41694;DHT22;27377;50.666;9.150;2023-04-24T12:40:06;10.70;99.90
41694;DHT22;27377;50.666;9.150;2023-04-24T12:42:35;10.70;99.90
41694;DHT22;27377;50.666;9.150;2023-04-24T12:45:05;10.60;99.90
41694;DHT22;27377;50.666;9.150;2023-04-24T12:47:32;10.60;99.90
41694;DHT22;27377;50.666;9.150;2023-04-24T12:49:59;10.60;99.90
41694;DHT22;27377;50.666;9.150;2023-04-24T12:52:26;10.60;99.90
41694;DHT22;27377;50.666;9.150;2023-04-24T12:54:56;10.60;99.90
41694;DHT22;27377;50.666;9.150;2023-04-24T12:57:25;10.60;99.90
41694;DHT22;27377;50.666;9.150;2023-04-24T12:59:55;10.60;99.90
41694;DHT22;27377;50.666;9.150;2023-04-24T13:02:22;10.60;99.90
41694;DHT22;27377;50.666;9.150;2023-04-24T13:04:48;10.60;99.90
41694;DHT22;27377;50.666;9.150;2023-04-24T13:07:14;10.60;99.90
41694;DHT22;27377;50.666;9.150;2023-04-24T13:09:41;10.60;99.90
41694;DHT22;27377;50.666;9.150;2023-04-24T13:12:07;10.60;99.90
41694;DHT22;27377;50.666;9.150;2023-04-24T13:14:33;10.60;99.90
41694;DHT22;27377;50.666;9.150;2023-04-24T13:16:59;10.60;99.90
41694;DHT22;27377;50.666;9.150;2023-04-24T13:19:25;10.70;99.90
41694;DHT22;27377;50.666;9.150;2023-04-24T13:21:52;10.70;99.90
41694;DHT22;27377;50.666;9.150;2023-04-24T13:24:18;10.70;99.90
41694;DHT22;27377;50.666;9.150;2023-04-24T13:26:43;10.80;99.90
41694;DHT22;27377;50.666;9.150;2023-04-24T13:29:09;10.80;99.90
41694;DHT22;27377;50.666;9.150;2023-04-24T13:31:34;10.80;99.90
41694;DHT22;27377;50.666;9.150;2023-04-24T13:34:02;10.90;99.90
41694;DHT22;27377;50.666;9.150;2023-04-24T13:36:28;10.90;99.90
41694;DHT22;27377;50.666;9.150;2023-04-24T13:38:53;10.90;99.90
41694;DHT22;27377;50.666;9.150;2023-04-24T13:41:19;10.80;99.90
41694;DHT22;27377;50.666;9.150;2023-04-24T13:43:45;10.80;99.90
41694;DHT22;27377;50.666;9.150;2023-04-24T13:46:10;10.80;99.90
41694;DHT22;27377;50.666;9.150;2023-04-24T13:48:36;10.70;99.90
41694;DHT22;27377;50.666;9.150;2023-04-24T13:51:01;10.70;99.90
41694;DHT22;27377;50.666;9.150;2023-04-24T13:53:27;10.70;99.90
41694;DHT22;27377;50.666;9.150;2023-04-24T13:55:53;10.70;99.90
41694;DHT22;27377;50.666;9.150;2023-04-24T13:58:19;10.70;99.90
41694;DHT22;27377;50.666;9.150;2023-04-24T14:00:44;10.70;99.90
41694;DHT22;27377;50.666;9.150;2023-04-24T14:03:10;10.60;99.90
41694;DHT22;27377;50.666;9.150;2023-04-24T14:05:36;10.60;99.90
41694;DHT22;27377;50.666;9.150;2023-04-24T14:08:02;10.60;99.90
41694;DHT22;27377;50.666;9.150;2023-04-24T14:10:27;10.60;99.90
41694;DHT22;27377;50.666;9.150;2023-04-24T14:12:53;10.60;99.90
41694;DHT22;27377;50.666;9.150;2023-04-24T14:15:19;10.60;99.90
41694;DHT22;27377;50.666;9.150;2023-04-24T14:17:44;10.60;99.90
41694;DHT22;27377;50.666;9.150;2023-04-24T14:20:11;10.60;99.90
41694;DHT22;27377;50.666;9.150;2023-04-24T14:22:37;10.50;99.90
41694;DHT22;27377;50.666;9.150;2023-04-24T14:25:03;10.60;99.90
41694;DHT22;27377;50.666;9.150;2023-04-24T14:27:29;10.50;99.90
41694;DHT22;27377;50.666;9.150;2023-04-24T14:29:56;10.50;99.90
41694;DHT22;27377;50.666;9.150;2023-04-24T14:32:21;10.50;99.90
41694;DHT22;27377;50.666;9.150;2023-04-24T14:34:47;10.50;99.90
41694;DHT22;27377;50.666;9.150;2023-04-24T14:37:13;10.50;99.90
41694;DHT22;27377;50.666;9.150;2023-04-24T14:39:38;10.40;99.90
41694;DHT22;27377;50.666;9.150;2023-04-24T14:42:04;10.40;99.90
41694;DHT22;27377;50.666;9.150;2023-04-24T14:44:29;10.40;99.90
41694;DHT22;27377;50.666;9.150;2023-04-24T14:46:55;10.50;99.90
41694;DHT22;27377;50.666;9.150;2023-04-24T14:49:21;10.40;99.90
41694;DHT22;27377;50.666;9.150;2023-04-24T14:51:46;10.40;99.90
41694;DHT22;27377;50.666;9.150;2023-04-24T14:54:12;10.50;99.90
41694;DHT22;27377;50.666;9.150;2023-04-24T14:56:38;10.50;99.90
41694;DHT22;27377;50.666;9.150;2023-04-24T14:59:06;10.60;99.90
41694;DHT22;27377;50.666;9.150;2023-04-24T15:01:32;10.70;99.90
41694;DHT22;27377;50.666;9.150;2023-04-24T15:03:57;10.70;99.90
41694;DHT22;27377;50.666;9.150;2023-04-24T15:06:23;10.70;99.90
41694;DHT22;27377;50.666;9.150;2023-04-24T15:08:48;10.80;99.90
41694;DHT22;27377;50.666;9.150;2023-04-24T15:11:14;10.90;99.90
41694;DHT22;27377;50.666;9.150;2023-04-24T15:13:40;10.90;99.90
41694;DHT22;27377;50.666;9.150;2023-04-24T15:16:05;11.00;99.90
41694;DHT22;27377;50.666;9.150;2023-04-24T15:18:31;11.00;99.90
41694;DHT22;27377;50.666;9.150;2023-04-24T15:20:56;11.10;99.90
41694;DHT22;27377;50.666;9.150;2023-04-24T15:23:22;11.10;99.90
41694;DHT22;27377;50.666;9.150;2023-04-24T15:25:47;11.00;99.90
41694;DHT22;27377;50.666;9.150;2023-04-24T15:28:13;11.00;99.90
41694;DHT22;27377;50.666;9.150;2023-04-24T15:30:39;10.90;99.90
41694;DHT22;27377;50.666;9.150;2023-04-24T15:33:04;10.90;99.90
41694;DHT22;27377;50.666;9.150;2023-04-24T15:35:30;10.90;99.90